AXM1820 WMKP-VTSP
Flight info
| Callsign | AXM1820 |
|---|---|
| Flight time | 0h 44m |
| Altitude | 30000 |
| Route | GOGOM1B GOGOM Y351 DUBAX R325 URGAD URGAD1D |
| Aircraft | A320/M-SDE3FGHIRWY/LB1 |
Departure
| Time | 2026-04-25 08:23 |
|---|---|
| Airport | Penang International Airport (WMKP) |
Arrival
| Time | 2026-04-25 09:07 |
|---|---|
| Airport | Phuket International Airport (VTSP) |
| Time | Latitude | Longitude | Altitude | Speed | Heading |
|---|---|---|---|---|---|
| 2026-04-25 08:03 | 5.29158 | 100.26598 | 30 ft | 0 kts | 310° |
| 2026-04-25 08:15 | 5.29152 | 100.26605 | 30 ft | 2 kts | 310° |
| 2026-04-25 08:15 | 5.29142 | 100.26617 | 29 ft | 2 kts | 310° |
| 2026-04-25 08:15 | 5.29132 | 100.26629 | 28 ft | 2 kts | 310° |
| 2026-04-25 08:15 | 5.29122 | 100.26640 | 28 ft | 2 kts | 310° |
| 2026-04-25 08:16 | 5.29113 | 100.26652 | 28 ft | 2 kts | 310° |
| 2026-04-25 08:16 | 5.29100 | 100.26661 | 28 ft | 2 kts | 348° |
| 2026-04-25 08:16 | 5.29085 | 100.26660 | 27 ft | 2 kts | 22° |
| 2026-04-25 08:16 | 5.29077 | 100.26656 | 27 ft | 1 kts | 42° |
| 2026-04-25 08:17 | 5.29072 | 100.26651 | 27 ft | 0 kts | 43° |
| 2026-04-25 08:19 | 5.29073 | 100.26652 | 27 ft | 0 kts | 43° |
| 2026-04-25 08:19 | 5.29081 | 100.26659 | 27 ft | 2 kts | 43° |
| 2026-04-25 08:19 | 5.29101 | 100.26678 | 27 ft | 5 kts | 42° |
| 2026-04-25 08:19 | 5.29137 | 100.26711 | 27 ft | 8 kts | 41° |
| 2026-04-25 08:20 | 5.29190 | 100.26758 | 26 ft | 11 kts | 41° |
| 2026-04-25 08:20 | 5.29247 | 100.26821 | 25 ft | 11 kts | 85° |
| 2026-04-25 08:20 | 5.29195 | 100.26897 | 23 ft | 15 kts | 137° |
| 2026-04-25 08:20 | 5.29104 | 100.26872 | 23 ft | 16 kts | 221° |
| 2026-04-25 08:21 | 5.29016 | 100.26794 | 23 ft | 17 kts | 223° |
| 2026-04-25 08:21 | 5.28924 | 100.26709 | 23 ft | 18 kts | 222° |
| 2026-04-25 08:21 | 5.28831 | 100.26625 | 21 ft | 11 kts | 221° |
| 2026-04-25 08:21 | 5.28756 | 100.26579 | 20 ft | 13 kts | 196° |
| 2026-04-25 08:22 | 5.28683 | 100.26590 | 20 ft | 8 kts | 140° |
| 2026-04-25 08:22 | 5.28634 | 100.26659 | 20 ft | 11 kts | 117° |
| 2026-04-25 08:22 | 5.28651 | 100.26723 | 18 ft | 11 kts | 39° |
| 2026-04-25 08:22 | 5.28766 | 100.26826 | 20 ft | 49 kts | 42° |
| 2026-04-25 08:23 | 5.29205 | 100.27222 | 22 ft | 117 kts | 42° |
| 2026-04-25 08:23 | 5.29959 | 100.27910 | 64 ft | 166 kts | 41° |
| 2026-04-25 08:23 | 5.30845 | 100.28700 | 583 ft | 171 kts | 40° |
| 2026-04-25 08:23 | 5.31748 | 100.29491 | 1246 ft | 171 kts | 40° |
| 2026-04-25 08:24 | 5.32627 | 100.30267 | 1882 ft | 171 kts | 41° |
| 2026-04-25 08:24 | 5.33549 | 100.31087 | 2230 ft | 182 kts | 41° |
| 2026-04-25 08:24 | 5.34536 | 100.31967 | 2518 ft | 195 kts | 41° |
| 2026-04-25 08:24 | 5.35606 | 100.32919 | 2754 ft | 214 kts | 41° |
| 2026-04-25 08:25 | 5.36851 | 100.33856 | 3052 ft | 231 kts | 22° |
| 2026-04-25 08:25 | 5.38501 | 100.33990 | 3350 ft | 249 kts | 345° |
| 2026-04-25 08:25 | 5.40171 | 100.33315 | 3730 ft | 264 kts | 336° |
| 2026-04-25 08:25 | 5.41883 | 100.32567 | 4318 ft | 270 kts | 338° |
| 2026-04-25 08:26 | 5.43632 | 100.31840 | 5011 ft | 273 kts | 339° |
| 2026-04-25 08:26 | 5.45421 | 100.31126 | 5706 ft | 276 kts | 340° |
| 2026-04-25 08:26 | 5.47243 | 100.30415 | 6410 ft | 279 kts | 341° |
| 2026-04-25 08:26 | 5.49060 | 100.29715 | 7116 ft | 283 kts | 341° |
| 2026-04-25 08:27 | 5.50943 | 100.28998 | 7814 ft | 287 kts | 341° |
| 2026-04-25 08:27 | 5.52844 | 100.28275 | 8515 ft | 292 kts | 341° |
| 2026-04-25 08:27 | 5.54766 | 100.27544 | 9213 ft | 296 kts | 341° |
| 2026-04-25 08:27 | 5.56740 | 100.26795 | 9899 ft | 300 kts | 341° |
| 2026-04-25 08:28 | 5.58713 | 100.26046 | 10518 ft | 307 kts | 341° |
| 2026-04-25 08:28 | 5.60780 | 100.25264 | 10862 ft | 324 kts | 341° |
| 2026-04-25 08:28 | 5.62943 | 100.24445 | 11287 ft | 335 kts | 341° |
| 2026-04-25 08:28 | 5.65158 | 100.23603 | 11902 ft | 339 kts | 341° |
| 2026-04-25 08:29 | 5.67391 | 100.22754 | 12551 ft | 342 kts | 341° |
| 2026-04-25 08:29 | 5.69667 | 100.21903 | 13133 ft | 345 kts | 343° |
| 2026-04-25 08:29 | 5.72025 | 100.21221 | 13739 ft | 347 kts | 349° |
| 2026-04-25 08:29 | 5.74350 | 100.20800 | 14307 ft | 349 kts | 354° |
| 2026-04-25 08:30 | 5.76786 | 100.20496 | 14864 ft | 351 kts | 355° |
| 2026-04-25 08:30 | 5.79201 | 100.20219 | 15396 ft | 353 kts | 356° |
| 2026-04-25 08:30 | 5.81694 | 100.19933 | 15935 ft | 356 kts | 356° |
| 2026-04-25 08:30 | 5.84155 | 100.19649 | 16454 ft | 358 kts | 356° |
| 2026-04-25 08:31 | 5.86681 | 100.19356 | 16963 ft | 361 kts | 356° |
| 2026-04-25 08:31 | 5.89201 | 100.19061 | 17436 ft | 363 kts | 356° |
| 2026-04-25 08:31 | 5.91736 | 100.18765 | 17899 ft | 365 kts | 356° |
| 2026-04-25 08:31 | 5.94279 | 100.18465 | 18335 ft | 369 kts | 356° |
| 2026-04-25 08:32 | 5.96858 | 100.18162 | 18766 ft | 371 kts | 356° |
| 2026-04-25 08:32 | 5.99438 | 100.17859 | 19191 ft | 373 kts | 356° |
| 2026-04-25 08:32 | 6.02028 | 100.17553 | 19622 ft | 376 kts | 356° |
| 2026-04-25 08:32 | 6.04656 | 100.17244 | 20034 ft | 378 kts | 356° |
| 2026-04-25 08:33 | 6.07282 | 100.16933 | 20435 ft | 380 kts | 356° |
| 2026-04-25 08:33 | 6.09948 | 100.16619 | 20838 ft | 382 kts | 355° |
| 2026-04-25 08:33 | 6.12596 | 100.16307 | 21222 ft | 385 kts | 355° |
| 2026-04-25 08:33 | 6.15285 | 100.15990 | 21608 ft | 387 kts | 355° |
| 2026-04-25 08:34 | 6.17988 | 100.15671 | 21983 ft | 389 kts | 356° |
| 2026-04-25 08:34 | 6.20674 | 100.15354 | 22351 ft | 391 kts | 355° |
| 2026-04-25 08:34 | 6.23397 | 100.15033 | 22722 ft | 393 kts | 355° |
| 2026-04-25 08:34 | 6.26166 | 100.14706 | 23094 ft | 395 kts | 355° |
| 2026-04-25 08:35 | 6.28918 | 100.14381 | 23445 ft | 398 kts | 355° |
| 2026-04-25 08:35 | 6.31671 | 100.14056 | 23793 ft | 400 kts | 355° |
| 2026-04-25 08:35 | 6.34451 | 100.13729 | 24144 ft | 402 kts | 355° |
| 2026-04-25 08:35 | 6.37270 | 100.13395 | 24494 ft | 404 kts | 355° |
| 2026-04-25 08:36 | 6.40088 | 100.13036 | 24834 ft | 407 kts | 351° |
| 2026-04-25 08:36 | 6.42829 | 100.12135 | 25127 ft | 413 kts | 334° |
| 2026-04-25 08:36 | 6.45224 | 100.10515 | 25465 ft | 417 kts | 319° |
| 2026-04-25 08:36 | 6.47253 | 100.08401 | 25817 ft | 420 kts | 313° |
| 2026-04-25 08:37 | 6.49210 | 100.06214 | 26136 ft | 422 kts | 313° |
| 2026-04-25 08:37 | 6.51176 | 100.04004 | 26517 ft | 422 kts | 313° |
| 2026-04-25 08:37 | 6.53130 | 100.01818 | 26954 ft | 420 kts | 313° |
| 2026-04-25 08:37 | 6.55103 | 99.99623 | 27394 ft | 418 kts | 313° |
| 2026-04-25 08:38 | 6.57041 | 99.97471 | 27819 ft | 417 kts | 313° |
| 2026-04-25 08:38 | 6.59013 | 99.95287 | 28237 ft | 416 kts | 313° |
| 2026-04-25 08:38 | 6.60942 | 99.93153 | 28597 ft | 416 kts | 313° |
| 2026-04-25 08:38 | 6.62915 | 99.90974 | 28935 ft | 417 kts | 313° |
| 2026-04-25 08:39 | 6.64882 | 99.88801 | 29262 ft | 419 kts | 313° |
| 2026-04-25 08:39 | 6.66831 | 99.86647 | 29593 ft | 420 kts | 313° |
| 2026-04-25 08:39 | 6.68812 | 99.84459 | 29811 ft | 421 kts | 313° |
| 2026-04-25 08:40 | 6.72774 | 99.80078 | 29819 ft | 422 kts | 313° |
| 2026-04-25 08:40 | 6.76730 | 99.75706 | 29818 ft | 422 kts | 313° |
| 2026-04-25 08:41 | 6.80716 | 99.71297 | 29818 ft | 422 kts | 313° |
| 2026-04-25 08:41 | 6.84684 | 99.66908 | 29820 ft | 422 kts | 313° |
| 2026-04-25 08:42 | 6.88634 | 99.62536 | 29819 ft | 422 kts | 313° |
| 2026-04-25 08:42 | 6.92599 | 99.58147 | 29821 ft | 421 kts | 313° |
| 2026-04-25 08:43 | 6.96541 | 99.53783 | 29818 ft | 421 kts | 313° |
| 2026-04-25 08:43 | 7.00504 | 99.49397 | 29816 ft | 422 kts | 314° |
| 2026-04-25 08:44 | 7.04532 | 99.45091 | 29817 ft | 421 kts | 314° |
| 2026-04-25 08:44 | 7.08580 | 99.40797 | 29813 ft | 421 kts | 314° |
| 2026-04-25 08:45 | 7.12623 | 99.36493 | 29814 ft | 421 kts | 314° |
| 2026-04-25 08:45 | 7.16653 | 99.32196 | 29811 ft | 421 kts | 314° |
| 2026-04-25 08:46 | 7.20674 | 99.27908 | 29813 ft | 421 kts | 314° |
| 2026-04-25 08:46 | 7.24718 | 99.23595 | 29814 ft | 422 kts | 314° |
| 2026-04-25 08:47 | 7.28745 | 99.19295 | 29813 ft | 421 kts | 314° |
| 2026-04-25 08:47 | 7.32756 | 99.15012 | 29810 ft | 421 kts | 314° |
| 2026-04-25 08:48 | 7.36800 | 99.10692 | 29770 ft | 418 kts | 314° |
| 2026-04-25 08:48 | 7.38807 | 99.08546 | 29405 ft | 415 kts | 314° |
| 2026-04-25 08:48 | 7.40790 | 99.06428 | 28777 ft | 415 kts | 314° |
| 2026-04-25 08:48 | 7.42779 | 99.04302 | 28197 ft | 414 kts | 314° |
| 2026-04-25 08:49 | 7.44750 | 99.02198 | 27608 ft | 413 kts | 314° |
| 2026-04-25 08:49 | 7.46752 | 99.00060 | 26874 ft | 416 kts | 314° |
| 2026-04-25 08:49 | 7.48738 | 98.97937 | 26137 ft | 419 kts | 314° |
| 2026-04-25 08:49 | 7.50753 | 98.95782 | 25393 ft | 421 kts | 314° |
| 2026-04-25 08:50 | 7.52780 | 98.93615 | 24652 ft | 423 kts | 314° |
| 2026-04-25 08:50 | 7.54818 | 98.91435 | 23911 ft | 424 kts | 314° |
| 2026-04-25 08:50 | 7.56836 | 98.89277 | 23183 ft | 425 kts | 314° |
| 2026-04-25 08:50 | 7.58899 | 98.87071 | 22444 ft | 426 kts | 314° |
| 2026-04-25 08:51 | 7.60947 | 98.84878 | 21737 ft | 427 kts | 314° |
| 2026-04-25 08:51 | 7.62990 | 98.82689 | 21039 ft | 428 kts | 314° |
| 2026-04-25 08:51 | 7.65056 | 98.80476 | 20330 ft | 428 kts | 314° |
| 2026-04-25 08:51 | 7.66127 | 98.79328 | 19965 ft | 428 kts | 314° |
| 2026-04-25 08:52 | 7.68150 | 98.77163 | 19269 ft | 428 kts | 314° |
| 2026-04-25 08:52 | 7.70227 | 98.74940 | 18561 ft | 428 kts | 315° |
| 2026-04-25 08:52 | 7.72276 | 98.72743 | 17854 ft | 427 kts | 314° |
| 2026-04-25 08:52 | 7.74299 | 98.70560 | 17136 ft | 428 kts | 314° |
| 2026-04-25 08:53 | 7.76355 | 98.68363 | 16313 ft | 427 kts | 317° |
| 2026-04-25 08:53 | 7.78629 | 98.66473 | 15495 ft | 411 kts | 327° |
| 2026-04-25 08:53 | 7.80980 | 98.64895 | 14674 ft | 396 kts | 329° |
| 2026-04-25 08:53 | 7.83267 | 98.63422 | 13848 ft | 383 kts | 329° |
| 2026-04-25 08:54 | 7.85489 | 98.61984 | 13013 ft | 371 kts | 328° |
| 2026-04-25 08:54 | 7.87649 | 98.60571 | 12170 ft | 360 kts | 328° |
| 2026-04-25 08:54 | 7.89713 | 98.59212 | 11348 ft | 351 kts | 328° |
| 2026-04-25 08:54 | 7.91803 | 98.57992 | 10592 ft | 337 kts | 341° |
| 2026-04-25 08:55 | 7.94053 | 98.57534 | 10154 ft | 314 kts | 357° |
| 2026-04-25 08:55 | 7.96181 | 98.57352 | 9637 ft | 302 kts | 358° |
| 2026-04-25 08:55 | 7.98296 | 98.57182 | 8804 ft | 302 kts | 357° |
| 2026-04-25 08:55 | 8.00380 | 98.57002 | 7970 ft | 301 kts | 357° |
| 2026-04-25 08:56 | 8.02493 | 98.56811 | 7125 ft | 299 kts | 357° |
| 2026-04-25 08:56 | 8.04558 | 98.56619 | 6298 ft | 297 kts | 357° |
| 2026-04-25 08:56 | 8.06621 | 98.56427 | 5454 ft | 295 kts | 357° |
| 2026-04-25 08:56 | 8.08655 | 98.56237 | 4621 ft | 292 kts | 356° |
| 2026-04-25 08:57 | 8.10685 | 98.56049 | 3787 ft | 289 kts | 356° |
| 2026-04-25 08:57 | 8.12667 | 98.55882 | 3334 ft | 272 kts | 356° |
| 2026-04-25 08:57 | 8.14489 | 98.55769 | 3088 ft | 256 kts | 4° |
| 2026-04-25 08:57 | 8.16114 | 98.56345 | 2979 ft | 239 kts | 37° |
| 2026-04-25 08:58 | 8.17334 | 98.57410 | 2979 ft | 223 kts | 44° |
| 2026-04-25 08:58 | 8.18461 | 98.58499 | 2979 ft | 216 kts | 43° |
| 2026-04-25 08:58 | 8.19516 | 98.59543 | 2961 ft | 201 kts | 54° |
| 2026-04-25 08:58 | 8.20085 | 98.60811 | 2968 ft | 200 kts | 79° |
| 2026-04-25 08:59 | 8.20224 | 98.62225 | 2984 ft | 200 kts | 89° |
| 2026-04-25 08:59 | 8.19886 | 98.63588 | 2972 ft | 203 kts | 119° |
| 2026-04-25 08:59 | 8.18920 | 98.64658 | 2980 ft | 206 kts | 146° |
| 2026-04-25 08:59 | 8.17578 | 98.65174 | 2986 ft | 210 kts | 173° |
| 2026-04-25 09:00 | 8.16122 | 98.65015 | 2980 ft | 211 kts | 202° |
| 2026-04-25 09:00 | 8.14891 | 98.64180 | 2979 ft | 212 kts | 231° |
| 2026-04-25 09:00 | 8.14201 | 98.62877 | 2979 ft | 211 kts | 259° |
| 2026-04-25 09:00 | 8.14017 | 98.61392 | 2991 ft | 211 kts | 267° |
| 2026-04-25 09:01 | 8.13916 | 98.59931 | 2982 ft | 210 kts | 267° |
| 2026-04-25 09:01 | 8.13799 | 98.58436 | 2982 ft | 210 kts | 266° |
| 2026-04-25 09:01 | 8.13677 | 98.56949 | 2982 ft | 210 kts | 267° |
| 2026-04-25 09:01 | 8.13527 | 98.55474 | 2982 ft | 211 kts | 263° |
| 2026-04-25 09:02 | 8.13290 | 98.54006 | 2976 ft | 211 kts | 261° |
| 2026-04-25 09:02 | 8.13038 | 98.52528 | 2759 ft | 211 kts | 261° |
| 2026-04-25 09:02 | 8.12792 | 98.51078 | 2611 ft | 202 kts | 262° |
| 2026-04-25 09:02 | 8.12649 | 98.49728 | 2540 ft | 184 kts | 267° |
| 2026-04-25 09:03 | 8.12561 | 98.48489 | 2480 ft | 164 kts | 267° |
| 2026-04-25 09:03 | 8.12485 | 98.47353 | 2482 ft | 160 kts | 267° |
| 2026-04-25 09:03 | 8.12410 | 98.46238 | 2500 ft | 155 kts | 268° |
| 2026-04-25 09:03 | 8.12336 | 98.45164 | 2428 ft | 148 kts | 267° |
| 2026-04-25 09:04 | 8.12265 | 98.44132 | 2230 ft | 146 kts | 267° |
| 2026-04-25 09:04 | 8.12201 | 98.43110 | 2042 ft | 145 kts | 268° |
| 2026-04-25 09:04 | 8.12182 | 98.42085 | 1847 ft | 144 kts | 268° |
| 2026-04-25 09:04 | 8.12151 | 98.41074 | 1687 ft | 143 kts | 270° |
| 2026-04-25 09:05 | 8.12125 | 98.40068 | 1516 ft | 142 kts | 265° |
| 2026-04-25 09:05 | 8.12039 | 98.39066 | 1378 ft | 141 kts | 266° |
| 2026-04-25 09:05 | 8.11962 | 98.38082 | 1169 ft | 139 kts | 266° |
| 2026-04-25 09:05 | 8.11852 | 98.37115 | 924 ft | 137 kts | 266° |
| 2026-04-25 09:06 | 8.11760 | 98.36155 | 728 ft | 136 kts | 263° |
| 2026-04-25 09:06 | 8.11656 | 98.35216 | 493 ft | 134 kts | 264° |
| 2026-04-25 09:06 | 8.11566 | 98.34279 | 344 ft | 132 kts | 264° |
| 2026-04-25 09:06 | 8.11473 | 98.33344 | 190 ft | 132 kts | 266° |
| 2026-04-25 09:07 | 8.11393 | 98.32448 | 83 ft | 120 kts | 265° |
| 2026-04-25 09:07 | 8.11332 | 98.31768 | 68 ft | 72 kts | 262° |
| 2026-04-25 09:07 | 8.11290 | 98.31358 | 45 ft | 53 kts | 266° |
| 2026-04-25 09:07 | 8.11240 | 98.31167 | 41 ft | 16 kts | 245° |
| 2026-04-25 09:08 | 8.11179 | 98.31063 | 40 ft | 17 kts | 237° |
| 2026-04-25 09:08 | 8.11106 | 98.30957 | 38 ft | 18 kts | 239° |
| 2026-04-25 09:08 | 8.11081 | 98.30846 | 38 ft | 12 kts | 265° |
| 2026-04-25 09:08 | 8.11072 | 98.30750 | 37 ft | 14 kts | 266° |
| 2026-04-25 09:09 | 8.11061 | 98.30639 | 34 ft | 16 kts | 264° |
| 2026-04-25 09:09 | 8.11043 | 98.30514 | 32 ft | 18 kts | 233° |
| 2026-04-25 09:09 | 8.10939 | 98.30463 | 34 ft | 16 kts | 194° |
| 2026-04-25 09:09 | 8.10838 | 98.30437 | 37 ft | 14 kts | 195° |
| 2026-04-25 09:10 | 8.10745 | 98.30413 | 37 ft | 10 kts | 193° |
| 2026-04-25 09:10 | 8.10674 | 98.30402 | 36 ft | 7 kts | 153° |
| 2026-04-25 09:10 | 8.10661 | 98.30446 | 38 ft | 4 kts | 106° |
| 2026-04-25 09:10 | 8.10654 | 98.30469 | 39 ft | 2 kts | 104° |
| 2026-04-25 09:11 | 8.10651 | 98.30483 | 39 ft | 0 kts | 105° |
| 2026-04-25 09:11 | 8.10651 | 98.30484 | 39 ft | 0 kts | 105° |